Time;durP1;ratioP1;P1;durP2;ratioP2;P2;SDS_P1;SDS_P2;PMS_P1;PMS_P2;Temp;Humidity;BMP_temperature;BMP_pressure;BME280_temperature;BME280_humidity;BME280_pressure;Samples;Min_cycle;Max_cycle;Signal;HPM_P1;HPM_P2
2021/04/29 00:01:57;;;;;;;1999.90;999.90;;;15.00;84.20;;;;;;5031891;28;20250;-67
2021/04/29 00:04:23;;;;;;;1999.90;999.90;;;14.90;88.90;;;;;;5031606;28;20166;-67
2021/04/29 00:06:49;;;;;;;1999.90;999.90;;;14.80;91.20;;;;;;5031433;28;20223;-67
2021/04/29 00:09:14;;;;;;;1999.90;999.90;;;14.80;92.90;;;;;;5031508;28;20197;-67
2021/04/29 00:11:40;;;;;;;1999.90;999.90;;;14.70;95.30;;;;;;5031616;28;20256;-67
2021/04/29 00:14:08;;;;;;;1999.90;999.90;;;14.70;98.30;;;;;;5031606;28;20174;-67
2021/04/29 00:16:34;;;;;;;1999.90;999.90;;;14.70;99.90;;;;;;5031469;28;20685;-68
2021/04/29 00:19:00;;;;;;;1999.90;999.90;;;14.70;99.90;;;;;;5031331;28;20480;-67
2021/04/29 00:21:25;;;;;;;1999.90;999.90;;;14.60;99.90;;;;;;5031618;28;20409;-68
2021/04/29 00:23:51;;;;;;;1999.90;999.90;;;14.60;99.90;;;;;;5034812;28;20420;-67
2021/04/29 00:26:17;;;;;;;1999.90;999.90;;;14.60;99.90;;;;;;5034954;28;20249;-67
2021/04/29 00:28:42;;;;;;;1999.90;999.90;;;14.40;99.90;;;;;;5035278;28;20253;-67
2021/04/29 00:31:08;;;;;;;1999.90;999.90;;;14.40;99.90;;;;;;5035174;28;20253;-64
2021/04/29 00:33:33;;;;;;;1999.90;999.90;;;14.40;99.90;;;;;;5035061;28;20171;-64
2021/04/29 00:36:01;;;;;;;1999.90;999.90;;;14.40;99.90;;;;;;5034598;28;20212;-64
2021/04/29 00:38:27;;;;;;;1999.90;999.90;;;14.30;99.90;;;;;;5034884;28;20280;-64
2021/04/29 00:40:54;;;;;;;1999.90;999.90;;;14.30;99.90;;;;;;5034847;28;20412;-63
2021/04/29 00:43:19;;;;;;;1999.90;999.90;;;14.20;99.90;;;;;;5034821;28;20462;-66
2021/04/29 00:45:46;;;;;;;1999.90;999.90;;;14.20;99.90;;;;;;5034803;28;20404;-66
2021/04/29 00:48:12;;;;;;;1999.90;999.90;;;14.10;99.90;;;;;;5034766;28;20295;-66
2021/04/29 00:50:39;;;;;;;1999.90;999.90;;;14.20;99.90;;;;;;5034778;28;20406;-66
2021/04/29 00:53:04;;;;;;;1999.90;999.90;;;14.10;99.90;;;;;;5034712;28;20391;-67
2021/04/29 00:55:30;;;;;;;1999.90;999.90;;;14.20;99.90;;;;;;5034388;28;20752;-64
2021/04/29 00:57:56;;;;;;;1999.90;999.90;;;14.10;99.90;;;;;;5034517;28;20188;-64
2021/04/29 01:00:22;;;;;;;1999.90;999.90;;;14.10;99.90;;;;;;5034546;28;20498;-64
2021/04/29 01:02:55;;;;;;;1999.90;999.90;;;14.10;99.90;;;;;;5034623;28;20185;-65
2021/04/29 01:05:34;;;;;;;1999.90;999.90;;;14.10;99.90;;;;;;5034291;28;20468;-65
2021/04/29 01:08:55;;;;;;;1999.90;999.90;;;14.10;99.90;;;;;;5034347;28;20429;-66
2021/04/29 01:11:23;;;;;;;1999.90;999.90;;;14.10;99.90;;;;;;5029938;28;20435;-64
2021/04/29 01:13:53;;;;;;;1999.90;999.90;;;14.10;99.90;;;;;;5034423;28;20773;-64
2021/04/29 01:16:20;;;;;;;1999.90;999.90;;;14.10;99.90;;;;;;5033938;28;20813;-65
2021/04/29 01:18:47;;;;;;;1999.90;999.90;;;14.10;99.90;;;;;;5033920;28;20452;-65
2021/04/29 01:21:15;;;;;;;1999.90;999.90;;;14.10;99.90;;;;;;5034263;28;20403;-65
2021/04/29 01:23:41;;;;;;;1999.90;999.90;;;14.10;99.90;;;;;;5034109;28;20431;-64
2021/04/29 01:26:21;;;;;;;1999.90;999.90;;;14.10;99.90;;;;;;5033849;28;20409;-64
2021/04/29 01:28:49;;;;;;;1999.90;999.90;;;14.00;99.90;;;;;;5033956;28;20200;-64
2021/04/29 01:31:17;;;;;;;1999.90;999.90;;;14.00;99.90;;;;;;5034095;28;20464;-68
2021/04/29 01:33:43;;;;;;;1999.90;999.90;;;14.00;99.90;;;;;;5032705;28;20508;-67
2021/04/29 01:36:09;;;;;;;1999.90;999.90;;;13.90;99.90;;;;;;5033743;28;20452;-67
2021/04/29 01:38:37;;;;;;;1999.90;999.90;;;13.90;99.90;;;;;;5033823;28;20423;-64
2021/04/29 01:41:04;;;;;;;1999.90;999.90;;;13.90;99.90;;;;;;5033774;28;20754;-64
2021/04/29 01:43:31;;;;;;;1999.90;999.90;;;13.90;99.90;;;;;;5033798;28;20491;-65
2021/04/29 01:45:57;;;;;;;1999.90;999.90;;;13.90;99.90;;;;;;5033477;28;21055;-65
2021/04/29 01:48:23;;;;;;;1999.90;999.90;;;13.90;99.90;;;;;;5033595;28;20512;-64
2021/04/29 01:50:49;;;;;;;1999.90;999.90;;;13.90;99.90;;;;;;5033627;28;20176;-64
2021/04/29 01:53:15;;;;;;;1999.90;999.90;;;13.90;99.90;;;;;;5033593;28;20407;-64
2021/04/29 01:55:41;;;;;;;1999.90;999.90;;;13.80;99.90;;;;;;5033169;28;20209;-65
2021/04/29 01:58:07;;;;;;;1999.90;999.90;;;13.80;99.90;;;;;;5033415;28;20492;-65
2021/04/29 02:00:33;;;;;;;1999.90;999.90;;;13.70;99.90;;;;;;5033479;28;20408;-66
2021/04/29 02:03:01;;;;;;;1999.90;999.90;;;13.70;99.90;;;;;;5033333;28;20535;-64
2021/04/29 02:05:27;;;;;;;1999.90;999.90;;;13.60;99.90;;;;;;5033123;28;20170;-67
2021/04/29 02:07:53;;;;;;;1999.90;999.90;;;13.60;99.90;;;;;;5033243;28;20873;-66
2021/04/29 02:10:19;;;;;;;1999.90;999.90;;;13.60;99.90;;;;;;5033250;28;20617;-65
2021/04/29 02:12:53;;;;;;;1999.90;999.90;;;13.50;99.90;;;;;;5031970;28;20457;-67
2021/04/29 02:15:20;;;;;;;1999.90;999.90;;;13.50;99.90;;;;;;5032936;28;20418;-67
2021/04/29 02:17:55;;;;;;;1999.90;999.90;;;13.50;99.90;;;;;;5032861;28;20471;-68
2021/04/29 02:20:22;;;;;;;1999.90;999.90;;;13.40;99.90;;;;;;5033157;28;20998;-67
2021/04/29 02:22:49;;;;;;;1999.90;999.90;;;13.50;99.90;;;;;;5032948;28;20404;-66
2021/04/29 02:25:15;;;;;;;1999.90;999.90;;;13.40;99.90;;;;;;5032729;28;20399;-66
2021/04/29 02:27:42;;;;;;;1999.90;999.90;;;13.40;99.90;;;;;;5032871;28;20437;-67
2021/04/29 02:30:13;;;;;;;1999.90;999.90;;;13.40;99.90;;;;;;5032844;28;20894;-67
2021/04/29 02:32:39;;;;;;;1999.90;999.90;;;13.30;99.90;;;;;;5032838;28;20412;-67
2021/04/29 02:35:07;;;;;;;1999.90;999.90;;;13.30;99.90;;;;;;5032481;28;20411;-66
2021/04/29 02:37:34;;;;;;;1999.90;999.90;;;13.30;99.90;;;;;;5032596;28;20554;-66
2021/04/29 02:40:00;;;;;;;1999.90;999.90;;;13.20;99.90;;;;;;5032676;28;20847;-66
2021/04/29 02:42:26;;;;;;;1999.90;999.90;;;13.20;99.90;;;;;;5032681;28;20407;-65
2021/04/29 02:44:52;;;;;;;1999.90;999.90;;;13.10;99.90;;;;;;5031972;28;20496;-64
2021/04/29 02:47:18;;;;;;;1999.90;999.90;;;13.10;99.90;;;;;;5032564;28;21008;-65
2021/04/29 02:49:44;;;;;;;1999.90;999.90;;;13.00;99.90;;;;;;5032512;28;20499;-67
2021/04/29 02:52:10;;;;;;;1999.90;999.90;;;13.00;99.90;;;;;;5032502;28;20494;-67
2021/04/29 02:54:36;;;;;;;1999.90;999.90;;;13.00;99.90;;;;;;5032472;28;20170;-65
2021/04/29 02:57:03;;;;;;;1999.90;999.90;;;12.90;99.90;;;;;;5031990;28;20471;-65
2021/04/29 02:59:28;;;;;;;1999.90;999.90;;;12.90;99.90;;;;;;5032451;28;20462;-67
2021/04/29 03:01:54;;;;;;;1999.90;999.90;;;12.90;99.90;;;;;;5032287;28;20421;-67
2021/04/29 03:04:20;;;;;;;1999.90;999.90;;;12.80;99.90;;;;;;5032342;28;20203;-66
2021/04/29 03:06:45;;;;;;;1999.90;999.90;;;12.80;99.90;;;;;;5031936;28;20174;-67
2021/04/29 03:09:11;;;;;;;1999.90;999.90;;;12.80;99.90;;;;;;5032110;28;20200;-67
2021/04/29 03:11:37;;;;;;;1999.90;999.90;;;12.80;99.90;;;;;;5032201;28;20176;-65
2021/04/29 03:14:03;;;;;;;1999.90;999.90;;;12.80;99.90;;;;;;5032153;28;20212;-65
2021/04/29 03:16:30;;;;;;;1999.90;999.90;;;12.70;99.90;;;;;;5031750;28;20195;-66
2021/04/29 03:18:55;;;;;;;1999.90;999.90;;;12.70;99.90;;;;;;5064563;22;20485;-68
2021/04/29 03:21:21;;;;;;;1999.90;999.90;;;12.70;99.90;;;;;;5074506;28;20410;-67
2021/04/29 03:23:47;;;;;;;1999.90;999.90;;;12.70;99.90;;;;;;5072285;28;20245;-67
2021/04/29 03:26:12;;;;;;;1999.90;999.90;;;12.70;99.90;;;;;;5071625;28;20677;-68
2021/04/29 03:28:38;;;;;;;1999.90;999.90;;;12.60;99.90;;;;;;5074870;28;20193;-67
2021/04/29 03:31:04;;;;;;;1999.90;999.90;;;12.60;99.90;;;;;;5075945;28;20511;-67
2021/04/29 03:33:29;;;;;;;1999.90;999.90;;;12.50;99.90;;;;;;5073975;28;20175;-67
2021/04/29 03:35:55;;;;;;;1999.90;999.90;;;12.50;99.90;;;;;;5071472;28;20198;-68
2021/04/29 03:38:21;;;;;;;1999.90;999.90;;;12.50;99.90;;;;;;5071734;28;20183;-68
2021/04/29 03:40:46;;;;;;;1999.90;999.90;;;12.40;99.90;;;;;;5071892;28;20855;-67
2021/04/29 03:43:12;;;;;;;1999.90;999.90;;;12.50;99.90;;;;;;5071835;28;20164;-67
2021/04/29 03:45:38;;;;;;;1999.90;999.90;;;12.50;99.90;;;;;;5071397;28;20514;-68
2021/04/29 03:48:04;;;;;;;1999.90;999.90;;;12.40;99.90;;;;;;5071661;28;20192;-67
2021/04/29 03:50:30;;;;;;;1999.90;999.90;;;12.40;99.90;;;;;;5075802;28;20414;-68
2021/04/29 03:52:56;;;;;;;1999.90;999.90;;;12.40;99.90;;;;;;5071801;28;20406;-68
2021/04/29 03:55:22;;;;;;;1999.90;999.90;;;12.40;99.90;;;;;;5071317;28;20162;-68
2021/04/29 03:57:47;;;;;;;1999.90;999.90;;;12.40;99.90;;;;;;5073384;28;20200;-68
2021/04/29 04:00:14;;;;;;;1999.90;999.90;;;12.30;99.90;;;;;;5075604;28;20195;-67
2021/04/29 04:02:40;;;;;;;1999.90;999.90;;;12.20;99.90;;;;;;5075558;28;20182;-67
2021/04/29 04:05:06;;;;;;;1999.90;999.90;;;12.10;99.90;;;;;;5075517;28;20410;-67
2021/04/29 04:07:33;;;;;;;1999.90;999.90;;;12.10;99.90;;;;;;5075521;28;20429;-68
2021/04/29 04:09:59;;;;;;;1999.90;999.90;;;12.00;99.90;;;;;;5076726;28;20421;-67
2021/04/29 04:12:24;;;;;;;1999.90;999.90;;;11.90;99.90;;;;;;5076205;28;20484;-67
2021/04/29 04:14:50;;;;;;;1999.90;999.90;;;11.80;99.90;;;;;;5075071;28;20199;-67
2021/04/29 04:17:15;;;;;;;1999.90;999.90;;;11.70;99.90;;;;;;5076423;28;20553;-67
2021/04/29 04:19:41;;;;;;;1999.90;999.90;;;11.70;99.90;;;;;;5077479;28;20202;-67
2021/04/29 04:22:06;;;;;;;1999.90;999.90;;;11.70;99.90;;;;;;5075688;28;20172;-67
2021/04/29 04:24:32;;;;;;;1999.90;999.90;;;11.70;99.90;;;;;;5076217;28;20174;-68
2021/04/29 04:26:58;;;;;;;1999.90;999.90;;;11.60;99.90;;;;;;5074914;28;20171;-67
2021/04/29 04:29:23;;;;;;;1999.90;999.90;;;11.60;99.90;;;;;;5079137;28;20208;-68
2021/04/29 04:31:49;;;;;;;1999.90;999.90;;;11.60;99.90;;;;;;5079839;28;20174;-66
2021/04/29 04:34:15;;;;;;;1999.90;999.90;;;11.50;99.90;;;;;;5076975;28;20585;-67
2021/04/29 04:36:40;;;;;;;1999.90;999.90;;;11.50;99.90;;;;;;5074702;28;20205;-68
2021/04/29 04:39:06;;;;;;;1999.90;999.90;;;11.50;99.90;;;;;;5076274;28;20664;-67
2021/04/29 04:41:32;;;;;;;1999.90;999.90;;;11.50;99.90;;;;;;5074965;28;20167;-67
2021/04/29 04:43:57;;;;;;;1999.90;999.90;;;11.40;99.90;;;;;;5074889;28;20624;-65
2021/04/29 04:46:24;;;;;;;1999.90;999.90;;;11.40;99.90;;;;;;5078904;28;20207;-65
2021/04/29 04:48:50;;;;;;;1999.90;999.90;;;11.30;99.90;;;;;;5075950;28;20197;-65
2021/04/29 04:51:15;;;;;;;1999.90;999.90;;;11.30;99.90;;;;;;5074610;28;20894;-66
2021/04/29 04:53:41;;;;;;;1999.90;999.90;;;11.20;99.90;;;;;;5074968;28;20182;-65
2021/04/29 04:56:07;;;;;;;1999.90;999.90;;;11.20;99.90;;;;;;5074337;28;20208;-66
2021/04/29 04:58:32;;;;;;;1999.90;999.90;;;11.20;99.90;;;;;;5074706;28;20198;-65
2021/04/29 05:00:58;;;;;;;1999.90;999.90;;;11.10;99.90;;;;;;5076096;28;20635;-65
2021/04/29 05:03:24;;;;;;;1999.90;999.90;;;11.10;99.90;;;;;;5076623;28;20170;-66
2021/04/29 05:05:49;;;;;;;1999.90;999.90;;;11.00;99.90;;;;;;5077673;28;20261;-64
2021/04/29 05:08:15;;;;;;;1999.90;999.90;;;11.00;99.90;;;;;;5077811;28;20307;-65
2021/04/29 05:10:41;;;;;;;1999.90;999.90;;;11.00;99.90;;;;;;5075392;28;20174;-65
2021/04/29 05:13:07;;;;;;;1999.90;999.90;;;11.00;99.90;;;;;;5078464;28;20164;-65
2021/04/29 05:15:34;;;;;;;1999.90;999.90;;;11.00;99.90;;;;;;5074904;28;20634;-66
2021/04/29 05:18:00;;;;;;;1999.90;999.90;;;11.00;99.90;;;;;;5075773;28;20457;-64
2021/04/29 05:20:28;;;;;;;1999.90;999.90;;;11.00;99.90;;;;;;5076208;28;20501;-66
2021/04/29 05:22:54;;;;;;;1999.90;999.90;;;11.00;99.90;;;;;;5075837;28;20628;-65
2021/04/29 05:25:22;;;;;;;1999.90;999.90;;;11.00;99.90;;;;;;5077719;28;20406;-65
2021/04/29 05:27:51;;;;;;;1999.90;999.90;;;11.00;99.90;;;;;;5074026;28;20408;-66
2021/04/29 05:30:18;;;;;;;1999.90;999.90;;;11.00;99.90;;;;;;5073909;28;20494;-65
2021/04/29 05:32:44;;;;;;;1999.90;999.90;;;11.00;99.90;;;;;;5073892;28;20413;-65
2021/04/29 05:35:10;;;;;;;1999.90;999.90;;;11.00;99.90;;;;;;5073860;28;20535;-65
2021/04/29 05:37:35;;;;;;;1999.90;999.90;;;11.10;99.90;;;;;;5077010;28;20578;-65
2021/04/29 05:40:01;;;;;;;1999.90;999.90;;;11.00;99.90;;;;;;5077289;28;20441;-65
2021/04/29 05:42:26;;;;;;;1999.90;999.90;;;11.00;99.90;;;;;;5073717;28;20533;-65
2021/04/29 05:44:52;;;;;;;1999.90;999.90;;;11.00;99.90;;;;;;5073443;28;20278;-65
2021/04/29 05:47:17;;;;;;;1999.90;999.90;;;11.10;99.90;;;;;;5073678;28;20167;-65
2021/04/29 05:49:43;;;;;;;1999.90;999.90;;;11.10;99.90;;;;;;5075012;28;20196;-65
2021/04/29 05:52:12;;;;;;;1999.90;999.90;;;11.10;99.90;;;;;;5073684;28;20171;-66
2021/04/29 05:54:38;;;;;;;1999.90;999.90;;;11.10;99.90;;;;;;5073676;28;20595;-65
2021/04/29 05:57:05;;;;;;;1999.90;999.90;;;11.10;99.90;;;;;;5073236;28;20491;-66
2021/04/29 05:59:30;;;;;;;1999.90;999.90;;;11.20;99.90;;;;;;5073293;28;20675;-65
2021/04/29 06:01:56;;;;;;;1999.90;999.90;;;11.20;99.90;;;;;;5073444;28;20398;-64
2021/04/29 06:04:22;;;;;;;1999.90;999.90;;;11.20;99.90;;;;;;5073305;28;20180;-65
2021/04/29 06:06:48;;;;;;;1999.90;999.90;;;11.20;99.90;;;;;;5072951;28;20232;-66
2021/04/29 06:09:15;;;;;;;1999.90;999.90;;;11.20;99.90;;;;;;5073170;28;20456;-66
2021/04/29 06:11:40;;;;;;;1999.90;999.90;;;11.30;99.90;;;;;;5073138;28;20405;-66
2021/04/29 06:14:06;;;;;;;1999.90;999.90;;;11.40;99.90;;;;;;5073199;28;20910;-66
2021/04/29 06:16:32;;;;;;;1999.90;999.90;;;11.40;99.90;;;;;;5072950;28;20563;-66
2021/04/29 06:18:57;;;;;;;1999.90;999.90;;;11.30;99.90;;;;;;5073162;28;20202;-65
2021/04/29 06:21:23;;;;;;;1999.90;999.90;;;11.30;99.90;;;;;;5072436;28;20178;-65
2021/04/29 06:23:49;;;;;;;1999.90;999.90;;;11.20;99.90;;;;;;5074390;28;20343;-65
2021/04/29 06:26:14;;;;;;;1999.90;999.90;;;11.30;99.90;;;;;;5073749;28;20174;-64
2021/04/29 06:28:40;;;;;;;1999.90;999.90;;;11.30;99.90;;;;;;5072722;28;20676;-65
2021/04/29 06:31:05;;;;;;;1999.90;999.90;;;11.30;99.90;;;;;;5072846;28;20178;-66
2021/04/29 06:33:31;;;;;;;1999.90;999.90;;;11.30;99.90;;;;;;5072836;28;20224;-66
2021/04/29 06:35:57;;;;;;;1999.90;999.90;;;11.40;99.90;;;;;;5072565;28;20605;-66
2021/04/29 06:38:23;;;;;;;1999.90;999.90;;;11.40;99.90;;;;;;5075803;28;20606;-66
2021/04/29 06:40:49;;;;;;;1999.90;999.90;;;11.50;99.90;;;;;;5072608;28;20409;-65
2021/04/29 06:43:15;;;;;;;1999.90;999.90;;;11.60;99.90;;;;;;5072833;28;20401;-65
2021/04/29 06:45:41;;;;;;;1999.90;999.90;;;11.60;99.90;;;;;;5072798;28;20190;-66
2021/04/29 06:48:10;;;;;;;1999.90;999.90;;;11.60;99.90;;;;;;5073596;28;20194;-66
2021/04/29 06:50:37;;;;;;;1999.90;999.90;;;11.60;99.90;;;;;;5072462;28;20171;-66
2021/04/29 06:53:03;;;;;;;1999.90;999.90;;;11.60;99.90;;;;;;5072384;28;20405;-65
2021/04/29 06:55:30;;;;;;;1999.90;999.90;;;11.60;99.90;;;;;;5072060;28;20749;-66
2021/04/29 06:57:56;;;;;;;1999.90;999.90;;;11.60;99.90;;;;;;5074617;28;20452;-65
2021/04/29 07:00:23;;;;;;;1999.90;999.90;;;11.70;99.90;;;;;;5075023;28;20480;-66
2021/04/29 07:02:49;;;;;;;1999.90;999.90;;;11.70;99.90;;;;;;5071028;28;20181;-66
2021/04/29 07:05:15;;;;;;;1999.90;999.90;;;11.80;99.90;;;;;;5075614;28;20415;-65
2021/04/29 07:07:41;;;;;;;1999.90;999.90;;;11.80;99.90;;;;;;5073684;28;20813;-65
2021/04/29 07:10:07;;;;;;;1999.90;999.90;;;11.80;99.90;;;;;;5071962;28;20486;-66
2021/04/29 07:12:33;;;;;;;1999.90;999.90;;;11.80;99.90;;;;;;5072054;28;20218;-67
2021/04/29 07:14:58;;;;;;;1999.90;999.90;;;11.90;99.90;;;;;;5071938;28;20805;-66
2021/04/29 07:17:24;;;;;;;1999.90;999.90;;;11.80;99.90;;;;;;5071813;28;20203;-65
2021/04/29 07:19:49;;;;;;;1999.90;999.90;;;11.90;99.90;;;;;;5071786;28;20211;-65
2021/04/29 07:22:15;;;;;;;1999.90;999.90;;;11.90;99.90;;;;;;5072028;28;20163;-65
2021/04/29 07:24:42;;;;;;;1999.90;999.90;;;11.90;99.90;;;;;;5072996;28;20168;-64
2021/04/29 07:27:09;;;;;;;1999.90;999.90;;;11.90;99.90;;;;;;5072565;28;20167;-65
2021/04/29 07:29:34;;;;;;;1999.90;999.90;;;11.90;99.90;;;;;;5071876;28;20456;-65
2021/04/29 07:32:01;;;;;;;1999.90;999.90;;;11.90;99.90;;;;;;5071964;28;20405;-65
2021/04/29 07:34:26;;;;;;;1999.90;999.90;;;11.90;99.90;;;;;;5071816;28;20178;-66
2021/04/29 07:36:52;;;;;;;1999.90;999.90;;;12.00;99.90;;;;;;5071538;28;20815;-66
2021/04/29 07:39:18;;;;;;;1999.90;999.90;;;12.10;99.90;;;;;;5071851;28;20198;-66
2021/04/29 07:41:44;;;;;;;1999.90;999.90;;;12.20;99.90;;;;;;5071551;28;20163;-66
2021/04/29 07:44:09;;;;;;;1999.90;999.90;;;12.10;99.90;;;;;;5071753;28;20440;-66
2021/04/29 07:46:35;;;;;;;1999.90;999.90;;;12.10;99.90;;;;;;5071672;28;20177;-68
2021/04/29 07:49:01;;;;;;;1999.90;999.90;;;12.10;99.90;;;;;;5071731;28;20196;-68
2021/04/29 07:51:27;;;;;;;1999.90;999.90;;;12.30;99.90;;;;;;5071736;28;20182;-67
2021/04/29 07:53:53;;;;;;;1999.90;999.90;;;12.30;99.90;;;;;;5071649;28;20514;-68
2021/04/29 07:56:19;;;;;;;1999.90;999.90;;;12.20;99.90;;;;;;5071411;28;20481;-68
2021/04/29 07:58:45;;;;;;;1999.90;999.90;;;12.20;99.90;;;;;;5071667;28;20417;-67
2021/04/29 08:01:10;;;;;;;1999.90;999.90;;;12.30;99.90;;;;;;5071656;28;20409;-68
2021/04/29 08:03:36;;;;;;;1999.90;999.90;;;12.30;99.90;;;;;;5071549;28;20175;-68
2021/04/29 08:06:02;;;;;;;1999.90;999.90;;;12.40;99.90;;;;;;5076601;28;20479;-68
2021/04/29 08:08:27;;;;;;;1999.90;999.90;;;12.50;99.90;;;;;;5076470;28;20282;-68
2021/04/29 08:10:53;;;;;;;1999.90;999.90;;;12.60;99.90;;;;;;5076986;28;20259;-67
2021/04/29 08:13:19;;;;;;;1999.90;999.90;;;12.80;99.90;;;;;;5076565;28;20299;-67
2021/04/29 08:15:44;;;;;;;1999.90;999.90;;;12.80;99.90;;;;;;5072131;28;20188;-68
2021/04/29 08:18:11;;;;;;;1999.90;999.90;;;12.90;99.90;;;;;;5068233;28;20228;-67
2021/04/29 08:20:38;;;;;;;1999.90;999.90;;;13.10;99.90;;;;;;5070202;28;20170;-68
2021/04/29 08:23:04;;;;;;;1999.90;999.90;;;13.20;99.90;;;;;;5058458;28;20510;-68
2021/04/29 08:25:30;;;;;;;1999.90;999.90;;;13.20;99.90;;;;;;5049979;28;20414;-68
2021/04/29 08:27:55;;;;;;;1999.90;999.90;;;12.90;99.90;;;;;;5050321;28;20407;-68
2021/04/29 08:30:27;;;;;;;1999.90;999.90;;;13.00;99.90;;;;;;5050455;28;20649;-68
2021/04/29 08:32:55;;;;;;;1999.90;999.90;;;13.10;99.90;;;;;;5050314;28;20165;-68
2021/04/29 08:35:21;;;;;;;1999.90;999.90;;;13.10;99.90;;;;;;5049962;28;20414;-68
2021/04/29 08:37:47;;;;;;;1999.90;999.90;;;12.90;99.90;;;;;;5049785;28;20458;-68
2021/04/29 08:40:13;;;;;;;1999.90;999.90;;;12.90;99.90;;;;;;5050448;28;20487;-68
2021/04/29 08:42:40;;;;;;;1999.90;999.90;;;13.20;99.90;;;;;;5050454;28;20224;-68
2021/04/29 08:45:06;;;;;;;1999.90;999.90;;;13.30;99.90;;;;;;5054192;28;20490;-68
2021/04/29 08:47:32;;;;;;;1999.90;999.90;;;13.40;99.90;;;;;;5054349;28;20412;-68
2021/04/29 08:49:57;;;;;;;1999.90;999.90;;;13.40;99.90;;;;;;5054427;28;20841;-68
2021/04/29 08:52:23;;;;;;;1999.90;999.90;;;13.40;99.90;;;;;;5054325;28;20176;-68
2021/04/29 08:54:49;;;;;;;1999.90;999.90;;;13.40;99.90;;;;;;5053893;28;20181;-68
2021/04/29 08:57:15;;;;;;;1999.90;999.90;;;13.30;99.90;;;;;;5053979;28;20201;-68
2021/04/29 08:59:41;;;;;;;1999.90;999.90;;;13.20;99.90;;;;;;5053975;28;20418;-69
2021/04/29 09:02:07;;;;;;;1999.90;999.90;;;13.10;99.90;;;;;;5052483;28;20450;-69
2021/04/29 09:04:41;;;;;;;1999.90;999.90;;;12.90;99.90;;;;;;5054193;28;20913;-69
2021/04/29 09:07:12;;;;;;;1999.90;999.90;;;13.00;99.90;;;;;;5053828;28;20410;-69
2021/04/29 09:09:42;;;;;;;1999.90;999.90;;;13.00;99.90;;;;;;5054003;28;20427;-68
2021/04/29 09:12:08;;;;;;;1999.90;999.90;;;13.10;99.90;;;;;;5053638;28;20449;-68
2021/04/29 09:14:43;;;;;;;1999.90;999.90;;;13.10;99.90;;;;;;5053410;28;20439;-68
2021/04/29 09:17:10;;;;;;;1999.90;999.90;;;13.30;99.90;;;;;;5053520;28;20450;-68
2021/04/29 09:19:48;;;;;;;1999.90;999.90;;;13.20;99.90;;;;;;5053683;28;20446;-66
2021/04/29 09:22:19;;;;;;;1999.90;999.90;;;13.10;99.90;;;;;;5053486;28;20892;-67
2021/04/29 09:24:45;;;;;;;1999.90;999.90;;;13.00;99.90;;;;;;5053540;28;20400;-70
2021/04/29 09:27:21;;;;;;;1999.90;999.90;;;13.00;99.90;;;;;;5053536;28;20943;-67
2021/04/29 09:29:54;;;;;;;1999.90;999.90;;;13.20;99.90;;;;;;5053527;28;20192;-67
2021/04/29 09:32:31;;;;;;;1999.90;999.90;;;13.50;99.90;;;;;;5053644;28;20413;-69
2021/04/29 09:34:57;;;;;;;1999.90;999.90;;;13.30;99.90;;;;;;5052975;28;20404;-69
2021/04/29 09:37:30;;;;;;;1999.90;999.90;;;13.20;99.90;;;;;;5053163;28;21099;-69
2021/04/29 09:39:56;;;;;;;1999.90;999.90;;;13.20;99.90;;;;;;5053166;28;20430;-69
2021/04/29 09:42:37;;;;;;;1999.90;999.90;;;13.10;99.90;;;;;;5052954;28;20778;-69
2021/04/29 09:45:17;;;;;;;1999.90;999.90;;;13.10;99.90;;;;;;5053011;28;20451;-69
2021/04/29 09:47:53;;;;;;;1999.90;999.90;;;13.30;99.90;;;;;;5053215;28;20413;-69
2021/04/29 09:50:31;;;;;;;1999.90;999.90;;;13.40;99.90;;;;;;5053480;28;20544;-69
2021/04/29 09:53:05;;;;;;;1999.90;999.90;;;13.20;99.90;;;;;;5052953;28;20411;-69
2021/04/29 09:55:32;;;;;;;1999.90;999.90;;;13.00;99.90;;;;;;5050632;28;20977;-69
2021/04/29 09:58:16;;;;;;;1999.90;999.90;;;13.00;99.90;;;;;;5052736;28;20461;-69
2021/04/29 10:00:43;;;;;;;1999.90;999.90;;;13.00;99.90;;;;;;5052890;28;20439;-67
2021/04/29 10:03:08;;;;;;;1999.90;999.90;;;13.30;99.90;;;;;;5052670;28;21094;-67
2021/04/29 10:05:39;;;;;;;1999.90;999.90;;;13.30;99.90;;;;;;5052694;28;20413;-67
2021/04/29 10:08:07;;;;;;;1999.90;999.90;;;13.40;99.90;;;;;;5052723;28;20198;-68
2021/04/29 10:10:36;;;;;;;1999.90;999.90;;;13.50;99.90;;;;;;5052907;28;20416;-68
2021/04/29 10:13:06;;;;;;;1999.90;999.90;;;13.40;99.90;;;;;;5052769;28;20453;-68
2021/04/29 10:15:34;;;;;;;1999.90;999.90;;;13.40;99.90;;;;;;5052320;28;20407;-69
2021/04/29 10:18:00;;;;;;;1999.90;999.90;;;13.30;99.90;;;;;;5052300;28;20466;-68
2021/04/29 10:20:26;;;;;;;1999.90;999.90;;;13.20;99.90;;;;;;5052357;28;20931;-68
2021/04/29 10:22:53;;;;;;;1999.90;999.90;;;12.90;99.90;;;;;;5052290;28;20429;-67
2021/04/29 10:25:32;;;;;;;1999.90;999.90;;;12.50;99.90;;;;;;5052394;28;20414;-68
2021/04/29 10:27:59;;;;;;;1999.90;999.90;;;11.90;99.90;;;;;;5052308;28;20424;-67
2021/04/29 10:30:38;;;;;;;1999.90;999.90;;;11.60;99.90;;;;;;5052457;28;20414;-67
2021/04/29 10:33:17;;;;;;;1999.90;999.90;;;11.40;99.90;;;;;;5052351;28;20551;-68
2021/04/29 10:35:58;;;;;;;1999.90;999.90;;;11.10;99.90;;;;;;5051790;28;20895;-68
2021/04/29 10:38:29;;;;;;;1999.90;999.90;;;10.80;99.90;;;;;;5051951;28;20465;-67
2021/04/29 10:41:00;;;;;;;1999.90;999.90;;;10.30;99.90;;;;;;5051970;28;20484;-67
2021/04/29 10:43:28;;;;;;;1999.90;999.90;;;9.90;99.90;;;;;;5051964;28;20403;-69
2021/04/29 10:45:54;;;;;;;1999.90;999.90;;;9.60;99.90;;;;;;5052005;28;20408;-71
2021/04/29 10:48:20;;;;;;;1999.90;999.90;;;9.50;99.90;;;;;;5056731;28;20425;-68
2021/04/29 10:50:51;;;;;;;1999.90;999.90;;;9.50;99.90;;;;;;5059977;28;20246;-67
2021/04/29 10:53:28;;;;;;;1999.90;999.90;;;9.30;99.90;;;;;;5062564;28;20177;-68
2021/04/29 10:56:02;;;;;;;1999.90;999.90;;;9.10;99.90;;;;;;5058940;28;20404;-66
2021/04/29 10:58:28;;;;;;;1999.90;999.90;;;8.70;99.90;;;;;;5053297;28;20798;-67
2021/04/29 11:01:37;;;;;;;1999.90;999.90;;;8.70;99.90;;;;;;5053813;28;20398;-68
2021/04/29 11:04:13;;;;;;;1999.90;999.90;;;8.80;99.90;;;;;;5010427;28;20269;-69
2021/04/29 11:06:39;;;;;;;1999.90;999.90;;;9.10;99.90;;;;;;5008009;28;20419;-70
2021/04/29 11:09:16;;;;;;;1999.90;999.90;;;9.30;99.90;;;;;;5037184;28;20444;-68
2021/04/29 11:11:42;;;;;;;1999.90;999.90;;;9.60;99.90;;;;;;5055007;28;20495;-71
2021/04/29 11:14:11;;;;;;;1999.90;999.90;;;9.70;99.90;;;;;;5058587;28;20503;-72
2021/04/29 11:16:48;;;;;;;1999.90;999.90;;;9.90;99.90;;;;;;5053853;28;20203;-68
2021/04/29 11:19:55;;;;;;;1999.90;999.90;;;10.30;99.90;;;;;;5049960;28;20510;-67
2021/04/29 11:22:29;;;;;;;1999.90;999.90;;;10.70;99.90;;;;;;5051554;28;20409;-68
2021/04/29 11:24:56;;;;;;;1999.90;999.90;;;11.10;99.90;;;;;;5053498;28;20408;-69
2021/04/29 11:27:21;;;;;;;1999.90;999.90;;;11.50;99.90;;;;;;5054360;28;20422;-68
2021/04/29 11:29:47;;;;;;;1999.90;999.90;;;11.70;99.90;;;;;;5053197;28;20465;-67
2021/04/29 11:32:13;;;;;;;1999.90;999.90;;;11.80;99.90;;;;;;5054475;28;20181;-68
2021/04/29 11:34:48;;;;;;;1999.90;999.90;;;12.00;99.90;;;;;;5054024;28;20975;-67
2021/04/29 11:37:15;;;;;;;1999.90;999.90;;;11.90;99.90;;;;;;5055412;28;20488;-68
2021/04/29 11:39:41;;;;;;;1999.90;999.90;;;12.00;99.90;;;;;;5054056;28;20432;-68
2021/04/29 11:42:10;;;;;;;1999.90;999.90;;;12.10;99.90;;;;;;5055550;28;20406;-66
2021/04/29 11:44:37;;;;;;;1999.90;999.90;;;12.20;99.90;;;;;;5054942;28;20406;-68
2021/04/29 11:47:13;;;;;;;1999.90;999.90;;;12.00;99.90;;;;;;5055569;28;20518;-67
2021/04/29 11:49:39;;;;;;;1999.90;999.90;;;11.50;99.90;;;;;;5053251;28;20556;-68
2021/04/29 11:52:04;;;;;;;1999.90;999.90;;;10.90;99.90;;;;;;5058470;28;21000;-68
2021/04/29 11:54:31;;;;;;;1999.90;999.90;;;10.60;99.90;;;;;;5068498;28;20432;-68
2021/04/29 11:57:01;;;;;;;1999.90;999.90;;;10.40;99.90;;;;;;5077885;28;20211;-68
2021/04/29 11:59:31;;;;;;;1999.90;999.90;;;10.30;99.90;;;;;;5077663;28;20430;-68
2021/04/29 12:01:59;;;;;;;1999.90;999.90;;;10.30;99.90;;;;;;5077762;28;20466;-69